Etusivu
METAR-TAF:

METAR-TAF

Lentoasemat :

Juigalpa, Nicaragua

Leveyspiiri: 12-06N, Pituuspiiri: 085-22W, korkeus merenpinnasta: 90 m

Tämänhetkinen sää

Tämä raportti tehtiin 3 tuntia ja 11 minuuttia sitten, kello 23.00 UTC
Tuuli 10 kn idästä
Lämpötila 32°C
Kosteus 52%
Ilmanpaine 1011 hPa
Näkyvyys 10 km tai enemmän
Hajanaisia pilviä 2000 ft:n korkeudessa

METAR: MNJU 192300Z 08010KT 9999 SCT020 32/21 Q1011

Aika: 20:11 (02:11 UTC)


TAF: puuttuu

Säähavainnot ja -ennusteet yli 4000 lentoasemalta (METAR- ja TAF-raportit).

Käytössä olevat sääasemat on merkitty karttaan keltaisilla ja punaisilla pisteillä.

Aseta hiiri pisteen päälle nähdäksesi sääaseman nimen.

Klikkaa sitten nähdäksesi säähavainnot ja -ennusteet.

Kartan vaihtaminen: klikkaa mustalla rastilla varustettuja vihreitä pisteitä, niin voit zoomata sisään; viivalla varustettua vihreää pistettä, niin voit zoomata ulos tai vihreitä nuolia, niin pääset viereisille kartoille.


METAR-TAF: